Time;durP1;ratioP1;P1;durP2;ratioP2;P2;SDS_P1;SDS_P2;PMS_P1;PMS_P2;Temp;Humidity;BMP_temperature;BMP_pressure;BME280_temperature;BME280_humidity;BME280_pressure;Samples;Min_cycle;Max_cycle;Signal;HPM_P1;HPM_P2
2024/01/06 00:00:52;;;;;;;4.70;3.70;;;-0.10;99.90;;;;;;4941955;28;20844;-45
2024/01/06 00:03:18;;;;;;;4.10;3.53;;;-0.10;99.90;;;;;;4964343;28;20206;-45
2024/01/06 00:05:45;;;;;;;3.30;2.97;;;0.00;99.90;;;;;;4952826;28;20229;-49
2024/01/06 00:08:12;;;;;;;4.57;3.20;;;-0.10;99.90;;;;;;4964142;28;20221;-48
2024/01/06 00:10:39;;;;;;;5.17;3.60;;;-0.10;99.90;;;;;;4955334;28;20202;-46
2024/01/06 00:13:07;;;;;;;3.87;3.47;;;0.00;99.90;;;;;;4921432;28;20285;-47
2024/01/06 00:15:34;;;;;;;3.70;3.10;;;-0.10;99.90;;;;;;4957264;28;20753;-48
2024/01/06 00:18:01;;;;;;;3.10;2.80;;;-0.10;99.90;;;;;;4953876;28;20197;-46
2024/01/06 00:20:28;;;;;;;4.80;3.47;;;-0.10;99.90;;;;;;4954832;28;20256;-45
2024/01/06 00:22:56;;;;;;;4.47;3.90;;;-0.10;99.90;;;;;;4958540;28;20435;-45
2024/01/06 00:25:23;;;;;;;3.70;3.30;;;-0.10;99.90;;;;;;4956648;28;20757;-47
2024/01/06 00:27:50;;;;;;;3.87;3.03;;;-0.10;99.90;;;;;;4957656;28;20225;-47
2024/01/06 00:30:18;;;;;;;3.67;3.30;;;-0.10;99.90;;;;;;4923578;28;21739;-45
2024/01/06 00:32:45;;;;;;;3.43;3.13;;;0.00;99.90;;;;;;4954433;28;20194;-48
2024/01/06 00:35:12;;;;;;;4.60;4.10;;;-0.10;99.90;;;;;;4957284;28;20237;-45
2024/01/06 00:37:38;;;;;;;4.20;3.43;;;-0.10;99.90;;;;;;4957863;28;20222;-47
2024/01/06 00:40:06;;;;;;;5.07;4.10;;;-0.10;99.90;;;;;;4952868;28;20217;-47
2024/01/06 00:42:33;;;;;;;4.20;3.63;;;-0.10;99.90;;;;;;4962199;28;20210;-46
2024/01/06 00:45:00;;;;;;;4.47;3.53;;;-0.10;99.90;;;;;;4932568;28;20291;-47
2024/01/06 00:47:28;;;;;;;4.67;3.80;;;-0.10;99.90;;;;;;4961182;28;20213;-46
2024/01/06 00:49:55;;;;;;;4.77;3.50;;;-0.10;99.90;;;;;;4956180;28;20233;-46
2024/01/06 00:52:22;;;;;;;3.67;3.10;;;-0.10;99.90;;;;;;4950145;28;20201;-46
2024/01/06 00:54:49;;;;;;;6.30;3.87;;;-0.10;99.90;;;;;;4957061;28;20225;-43
2024/01/06 00:57:16;;;;;;;4.87;3.33;;;-0.10;99.90;;;;;;4957107;28;20968;-46
2024/01/06 00:59:43;;;;;;;5.63;3.73;;;-0.10;99.90;;;;;;4931981;28;20296;-44
2024/01/06 01:02:10;;;;;;;5.33;4.07;;;-0.10;99.90;;;;;;4955682;28;20208;-49
2024/01/06 01:04:38;;;;;;;5.87;3.97;;;-0.10;99.90;;;;;;4958140;28;20697;-47
2024/01/06 01:07:05;;;;;;;5.03;3.57;;;-0.10;99.90;;;;;;4947446;28;20234;-50
2024/01/06 01:09:31;;;;;;;4.73;3.80;;;-0.10;99.90;;;;;;4966914;28;20205;-49
2024/01/06 01:11:58;;;;;;;4.43;3.63;;;-0.10;99.90;;;;;;4961275;28;20268;-50
2024/01/06 01:14:25;;;;;;;4.87;3.73;;;-0.10;99.90;;;;;;4932241;28;20213;-45
2024/01/06 01:16:52;;;;;;;4.63;4.00;;;-0.10;99.90;;;;;;4963224;28;20248;-49
2024/01/06 01:19:19;;;;;;;4.77;3.40;;;-0.10;99.90;;;;;;4950783;28;20497;-46
2024/01/06 01:21:47;;;;;;;4.10;3.23;;;-0.10;99.90;;;;;;4954801;28;20200;-44
2024/01/06 01:24:14;;;;;;;4.70;4.20;;;-0.10;99.90;;;;;;4949626;28;20334;-46
2024/01/06 01:26:40;;;;;;;4.53;3.60;;;-0.10;99.90;;;;;;4965594;28;20272;-45
2024/01/06 01:29:07;;;;;;;5.40;3.47;;;-0.20;99.90;;;;;;4937345;28;20202;-47
2024/01/06 01:31:34;;;;;;;4.80;3.43;;;-0.20;99.90;;;;;;4966889;28;20202;-44
2024/01/06 01:34:01;;;;;;;3.37;3.03;;;-0.10;99.90;;;;;;4955950;28;20221;-47
2024/01/06 01:36:28;;;;;;;4.20;3.80;;;-0.10;99.90;;;;;;4950620;28;20209;-46
2024/01/06 01:38:56;;;;;;;5.03;4.00;;;-0.10;99.90;;;;;;4965677;28;20202;-49
2024/01/06 01:41:23;;;;;;;4.23;3.00;;;-0.20;99.90;;;;;;4960716;28;20201;-44
2024/01/06 01:43:57;;;;;;;4.20;3.80;;;-0.20;99.90;;;;;;4965906;28;20677;-46
2024/01/06 01:46:26;;;;;;;4.43;3.87;;;-0.20;99.90;;;;;;4945036;28;20907;-45
2024/01/06 01:48:54;;;;;;;5.33;3.43;;;-0.20;99.90;;;;;;4951744;28;20216;-47
2024/01/06 01:51:21;;;;;;;6.10;4.00;;;-0.20;99.90;;;;;;4956229;28;23489;-44
2024/01/06 01:53:48;;;;;;;4.97;4.20;;;-0.20;99.90;;;;;;4975172;28;20193;-45
2024/01/06 01:56:17;;;;;;;5.47;4.13;;;-0.20;99.90;;;;;;4959715;28;20216;-44
2024/01/06 01:58:44;;;;;;;5.23;4.30;;;-0.20;99.90;;;;;;4966377;28;20271;-47
2024/01/06 02:01:11;;;;;;;4.60;4.20;;;-0.20;99.90;;;;;;4929080;28;20826;-48
2024/01/06 02:03:38;;;;;;;4.93;4.30;;;-0.20;99.90;;;;;;4956918;28;20198;-48
2024/01/06 02:06:06;;;;;;;4.60;4.20;;;-0.20;99.90;;;;;;4954379;28;20245;-51
2024/01/06 02:08:33;;;;;;;5.53;4.30;;;-0.20;99.90;;;;;;4969328;28;20642;-47
2024/01/06 02:11:00;;;;;;;4.90;4.23;;;-0.20;99.90;;;;;;4956000;28;20699;-50
2024/01/06 02:13:35;;;;;;;5.27;4.10;;;-0.20;99.90;;;;;;4968517;28;20201;-48
2024/01/06 02:16:01;;;;;;;4.53;3.90;;;-0.20;99.90;;;;;;4926456;28;20264;-49
2024/01/06 02:18:28;;;;;;;6.37;4.90;;;-0.20;99.90;;;;;;4961278;28;20251;-43
2024/01/06 02:20:58;;;;;;;4.47;3.83;;;-0.20;99.90;;;;;;4961483;28;20681;-47
2024/01/06 02:23:26;;;;;;;5.13;4.67;;;-0.20;99.90;;;;;;4956538;28;20871;-47
2024/01/06 02:25:53;;;;;;;5.20;4.70;;;-0.20;99.90;;;;;;4958003;28;20229;-46
2024/01/06 02:28:20;;;;;;;5.50;4.43;;;-0.20;99.90;;;;;;4960319;28;20217;-46
2024/01/06 02:30:47;;;;;;;5.63;4.70;;;-0.20;99.90;;;;;;4958306;28;20208;-45
2024/01/06 02:33:14;;;;;;;7.47;5.13;;;-0.20;99.90;;;;;;4940077;28;20200;-43
2024/01/06 02:35:41;;;;;;;6.03;4.70;;;-0.20;99.90;;;;;;4962350;28;20220;-47
2024/01/06 02:38:09;;;;;;;6.80;4.90;;;-0.20;99.90;;;;;;4957100;28;20202;-45
2024/01/06 02:40:38;;;;;;;5.67;4.57;;;-0.20;99.90;;;;;;4968791;28;20204;-44
2024/01/06 02:43:05;;;;;;;7.23;5.33;;;-0.20;99.90;;;;;;4956788;28;20267;-49
2024/01/06 02:45:32;;;;;;;5.57;4.73;;;-0.20;99.90;;;;;;4963505;28;20709;-44
2024/01/06 02:47:59;;;;;;;6.53;4.87;;;-0.20;99.90;;;;;;4934019;28;20260;-48
2024/01/06 02:50:26;;;;;;;5.83;4.73;;;-0.20;99.90;;;;;;4967284;28;20816;-46
2024/01/06 02:52:52;;;;;;;8.13;5.17;;;-0.20;99.90;;;;;;4968707;28;20248;-45
2024/01/06 02:55:19;;;;;;;6.13;5.00;;;-0.20;99.90;;;;;;4953531;28;20225;-46
2024/01/06 02:57:47;;;;;;;6.70;5.57;;;-0.20;99.90;;;;;;4948568;28;20209;-46
2024/01/06 03:00:15;;;;;;;6.67;5.20;;;-0.20;99.90;;;;;;4961250;28;20197;-43
2024/01/06 03:02:42;;;;;;;6.53;5.83;;;-0.20;99.90;;;;;;4936165;28;20217;-45
2024/01/06 03:05:10;;;;;;;8.20;5.40;;;-0.20;99.90;;;;;;4955345;28;20231;-47
2024/01/06 03:07:36;;;;;;;5.97;5.33;;;-0.20;99.90;;;;;;4959790;28;20221;-44
2024/01/06 03:10:04;;;;;;;7.60;5.53;;;-0.20;99.90;;;;;;4955510;28;20631;-47
2024/01/06 03:12:30;;;;;;;8.50;5.70;;;-0.20;99.90;;;;;;4950449;28;20218;-48
2024/01/06 03:14:59;;;;;;;7.17;5.60;;;-0.20;99.90;;;;;;4971407;28;20220;-46
2024/01/06 03:17:26;;;;;;;8.20;4.67;;;-0.20;99.90;;;;;;4934551;28;20293;-46
2024/01/06 03:19:53;;;;;;;5.83;5.23;;;-0.20;99.90;;;;;;4969168;28;20209;-46
2024/01/06 03:22:20;;;;;;;5.17;4.67;;;-0.20;99.90;;;;;;4955282;28;20227;-52
2024/01/06 03:24:47;;;;;;;9.33;5.47;;;-0.30;99.90;;;;;;4949544;28;21016;-46
2024/01/06 03:27:14;;;;;;;6.90;5.50;;;-0.20;99.90;;;;;;4956777;28;20201;-45
2024/01/06 03:29:40;;;;;;;6.90;5.43;;;-0.20;99.90;;;;;;4960186;28;20292;-45
2024/01/06 03:32:09;;;;;;;7.23;5.50;;;-0.20;99.90;;;;;;4961291;28;20221;-47
2024/01/06 03:34:35;;;;;;;7.00;5.23;;;-0.30;99.90;;;;;;4940621;28;20303;-44
2024/01/06 03:37:02;;;;;;;6.40;5.20;;;-0.20;99.90;;;;;;4955301;28;20208;-48
2024/01/06 03:39:29;;;;;;;6.00;5.33;;;-0.20;99.90;;;;;;4959327;28;20232;-47
2024/01/06 03:41:56;;;;;;;7.27;5.57;;;-0.20;99.90;;;;;;4961306;28;20621;-45
2024/01/06 03:44:23;;;;;;;5.93;5.00;;;-0.30;99.90;;;;;;4953488;28;20297;-46
2024/01/06 03:46:49;;;;;;;7.73;5.70;;;-0.20;99.90;;;;;;4964546;28;20216;-44
2024/01/06 03:49:18;;;;;;;6.70;5.23;;;-0.20;99.90;;;;;;4932217;28;20296;-44
2024/01/06 03:51:45;;;;;;;8.10;5.03;;;-0.20;99.90;;;;;;4962570;28;20268;-47
2024/01/06 03:54:13;;;;;;;5.53;4.77;;;-0.20;99.90;;;;;;4946163;28;20926;-44
2024/01/06 03:56:39;;;;;;;5.27;4.73;;;-0.20;99.90;;;;;;4973077;28;20259;-48
2024/01/06 03:59:07;;;;;;;7.00;5.40;;;-0.20;99.90;;;;;;4964424;28;20201;-46
2024/01/06 04:01:35;;;;;;;7.40;5.47;;;-0.20;99.90;;;;;;4961905;28;20695;-44
2024/01/06 04:04:03;;;;;;;7.93;5.70;;;-0.20;99.90;;;;;;4935003;28;20245;-49
2024/01/06 04:06:32;;;;;;;6.00;5.13;;;-0.20;99.90;;;;;;4960066;28;21153;-45
2024/01/06 04:08:59;;;;;;;7.53;4.93;;;-0.20;99.90;;;;;;4945160;28;20221;-46
2024/01/06 04:11:26;;;;;;;7.10;5.53;;;-0.30;99.90;;;;;;4966078;28;20205;-44
2024/01/06 04:13:53;;;;;;;8.47;5.33;;;-0.20;99.90;;;;;;4964041;28;20205;-47
2024/01/06 04:16:20;;;;;;;5.60;4.63;;;-0.20;99.90;;;;;;4952429;28;20200;-47
2024/01/06 04:18:47;;;;;;;7.03;5.67;;;-0.30;99.90;;;;;;4960422;28;20197;-51
2024/01/06 04:21:14;;;;;;;7.27;5.47;;;-0.30;99.90;;;;;;4923521;28;20252;-45
2024/01/06 04:23:42;;;;;;;6.20;4.93;;;-0.30;99.90;;;;;;4954829;28;20272;-46
2024/01/06 04:26:09;;;;;;;6.73;5.00;;;-0.30;99.90;;;;;;4957713;28;20243;-47
2024/01/06 04:28:36;;;;;;;6.60;5.13;;;-0.30;99.90;;;;;;4965685;28;20231;-45
2024/01/06 04:31:03;;;;;;;6.53;5.03;;;-0.30;99.90;;;;;;4956161;28;20198;-48
2024/01/06 04:33:31;;;;;;;6.17;4.90;;;-0.30;99.90;;;;;;4956783;28;20260;-45
2024/01/06 04:35:58;;;;;;;6.43;4.57;;;-0.20;99.90;;;;;;4928248;28;20229;-46
2024/01/06 04:38:25;;;;;;;7.20;5.60;;;-0.30;99.90;;;;;;4961664;28;20292;-47
2024/01/06 04:40:53;;;;;;;7.00;4.70;;;-0.30;99.90;;;;;;4947760;28;20578;-47
2024/01/06 04:43:20;;;;;;;7.87;5.20;;;-0.30;99.90;;;;;;4961814;28;20216;-49
2024/01/06 04:45:47;;;;;;;9.27;5.73;;;-0.20;99.90;;;;;;4964429;28;21417;-45
2024/01/06 04:48:14;;;;;;;6.27;5.00;;;-0.20;99.90;;;;;;4951182;28;20257;-47
2024/01/06 04:50:41;;;;;;;7.50;5.43;;;-0.20;99.90;;;;;;4930740;28;20263;-45
2024/01/06 04:53:08;;;;;;;6.83;5.10;;;-0.30;99.90;;;;;;4959032;28;20205;-45
2024/01/06 04:55:35;;;;;;;8.37;5.43;;;-0.30;99.90;;;;;;4958948;28;20287;-45
2024/01/06 04:58:04;;;;;;;6.13;5.00;;;-0.20;99.90;;;;;;4954731;28;20260;-45
2024/01/06 05:00:30;;;;;;;8.87;6.13;;;-0.30;99.90;;;;;;4960077;28;20286;-44
2024/01/06 05:02:57;;;;;;;5.97;5.37;;;-0.20;99.90;;;;;;4946047;28;20205;-48
2024/01/06 05:05:24;;;;;;;7.63;6.10;;;-0.30;99.90;;;;;;4964739;28;20799;-44
2024/01/06 05:07:51;;;;;;;6.13;5.30;;;-0.30;99.90;;;;;;4936996;28;20245;-46
2024/01/06 05:10:18;;;;;;;6.47;5.53;;;-0.30;99.90;;;;;;4958536;28;20215;-45
2024/01/06 05:12:44;;;;;;;6.57;5.37;;;-0.30;99.90;;;;;;4964377;28;20208;-45
2024/01/06 05:15:13;;;;;;;6.93;5.47;;;-0.30;99.90;;;;;;4954392;28;20284;-44
2024/01/06 05:17:39;;;;;;;7.27;6.07;;;-0.30;99.90;;;;;;4949891;28;20663;-46
2024/01/06 05:20:08;;;;;;;5.87;5.23;;;-0.30;99.90;;;;;;4976756;28;20225;-46
2024/01/06 05:22:34;;;;;;;8.63;5.97;;;-0.20;99.90;;;;;;4937718;28;20217;-44
2024/01/06 05:25:01;;;;;;;7.47;5.93;;;-0.20;99.90;;;;;;4961980;28;20291;-44
2024/01/06 05:27:28;;;;;;;7.10;5.80;;;-0.30;99.90;;;;;;4952003;28;20209;-46
2024/01/06 05:29:55;;;;;;;7.53;5.43;;;-0.30;99.90;;;;;;4960474;28;20236;-47
2024/01/06 05:32:23;;;;;;;8.53;6.40;;;-0.30;99.90;;;;;;4959980;28;20200;-45
2024/01/06 05:34:50;;;;;;;7.40;5.67;;;-0.30;99.90;;;;;;4955055;28;20218;-44
2024/01/06 05:37:17;;;;;;;6.90;6.17;;;-0.30;99.90;;;;;;4931761;28;20213;-44
2024/01/06 05:39:44;;;;;;;8.83;6.73;;;-0.30;99.90;;;;;;4962095;28;20285;-46
2024/01/06 05:42:12;;;;;;;6.80;5.40;;;-0.30;99.90;;;;;;4955249;28;20992;-45
2024/01/06 05:44:39;;;;;;;6.87;6.17;;;-0.30;99.90;;;;;;4949950;28;20701;-44
2024/01/06 05:47:06;;;;;;;6.73;5.40;;;-0.30;99.90;;;;;;4954653;28;20212;-45
2024/01/06 05:49:34;;;;;;;10.13;6.17;;;-0.30;99.90;;;;;;4956837;28;20699;-45
2024/01/06 05:52:01;;;;;;;7.90;6.27;;;-0.20;99.90;;;;;;4962822;28;20268;-46
2024/01/06 05:54:28;;;;;;;8.13;6.17;;;-0.30;99.90;;;;;;4941738;28;20232;-47
2024/01/06 05:56:56;;;;;;;7.53;5.30;;;-0.30;99.90;;;;;;4961087;28;20217;-44
2024/01/06 05:59:23;;;;;;;10.23;6.40;;;-0.30;99.90;;;;;;4942063;28;20348;-46
2024/01/06 06:01:51;;;;;;;7.60;5.63;;;-0.30;99.90;;;;;;4965491;28;20193;-47
2024/01/06 06:04:18;;;;;;;7.70;5.97;;;-0.30;99.90;;;;;;4955393;28;21907;-44
2024/01/06 06:06:46;;;;;;;9.30;6.53;;;-0.30;99.90;;;;;;4962905;28;20267;-46
2024/01/06 06:09:13;;;;;;;8.33;5.97;;;-0.30;99.90;;;;;;4932942;28;21295;-45
2024/01/06 06:11:40;;;;;;;7.40;6.37;;;-0.30;99.90;;;;;;4958912;28;20198;-44
2024/01/06 06:14:07;;;;;;;9.00;5.77;;;-0.30;99.90;;;;;;4951599;28;20225;-44
2024/01/06 06:16:34;;;;;;;8.90;6.27;;;-0.30;99.90;;;;;;4967768;28;20255;-44
2024/01/06 06:19:00;;;;;;;9.37;6.30;;;-0.30;99.90;;;;;;4962896;28;20205;-46
2024/01/06 06:21:27;;;;;;;7.03;5.70;;;-0.30;99.90;;;;;;4956374;28;20198;-45
2024/01/06 06:23:55;;;;;;;6.40;5.53;;;-0.30;99.90;;;;;;4954624;28;20362;-43
2024/01/06 06:26:22;;;;;;;7.73;6.00;;;-0.30;99.90;;;;;;4946812;28;20193;-45
2024/01/06 06:28:50;;;;;;;10.03;6.20;;;-0.30;99.90;;;;;;4962490;28;20205;-45
2024/01/06 06:31:17;;;;;;;10.57;6.90;;;-0.30;99.90;;;;;;4945154;28;20198;-46
2024/01/06 06:33:43;;;;;;;9.00;6.57;;;-0.30;99.90;;;;;;4965939;28;20197;-44
2024/01/06 06:36:11;;;;;;;6.27;5.40;;;-0.30;99.90;;;;;;4954132;28;20279;-44
2024/01/06 06:38:38;;;;;;;8.10;5.93;;;-0.30;99.90;;;;;;4954650;28;20791;-45
2024/01/06 06:41:06;;;;;;;8.13;6.23;;;-0.30;99.90;;;;;;4929558;28;20235;-44
2024/01/06 06:43:34;;;;;;;10.07;6.47;;;-0.30;99.90;;;;;;4963840;28;20381;-45
2024/01/06 06:46:00;;;;;;;7.80;6.27;;;-0.30;99.90;;;;;;4952156;28;20280;-44
2024/01/06 06:48:27;;;;;;;8.40;6.10;;;-0.30;99.90;;;;;;4967215;28;20219;-44
2024/01/06 06:50:54;;;;;;;9.63;6.13;;;-0.30;99.90;;;;;;4964269;28;20206;-44
2024/01/06 06:53:21;;;;;;;8.50;6.53;;;-0.30;99.90;;;;;;4946961;28;20209;-46
2024/01/06 06:55:48;;;;;;;10.53;6.73;;;-0.30;99.90;;;;;;4931016;28;20305;-44
2024/01/06 06:58:17;;;;;;;10.97;7.13;;;-0.30;99.90;;;;;;4969922;28;20200;-44
2024/01/06 07:00:44;;;;;;;8.63;6.77;;;-0.30;99.90;;;;;;4950658;28;20304;-44
2024/01/06 07:03:10;;;;;;;8.40;6.20;;;-0.30;99.90;;;;;;4963772;28;20713;-45
2024/01/06 07:05:39;;;;;;;10.07;6.67;;;-0.30;99.90;;;;;;4962402;28;20218;-44
2024/01/06 07:08:06;;;;;;;7.70;6.20;;;-0.30;99.90;;;;;;4948634;28;20217;-44
2024/01/06 07:10:33;;;;;;;10.80;7.33;;;-0.30;99.90;;;;;;4936922;28;20213;-46
2024/01/06 07:12:59;;;;;;;9.17;6.90;;;-0.30;99.90;;;;;;4968362;28;20261;-43
2024/01/06 07:15:28;;;;;;;13.03;6.90;;;-0.30;99.90;;;;;;4969214;28;20295;-43
2024/01/06 07:17:54;;;;;;;9.47;6.80;;;-0.30;99.90;;;;;;4961185;28;20220;-44
2024/01/06 07:20:21;;;;;;;10.53;6.60;;;-0.30;99.90;;;;;;4961679;28;20205;-44
2024/01/06 07:22:48;;;;;;;10.57;6.43;;;-0.30;99.90;;;;;;4958788;28;20514;-44
2024/01/06 07:25:15;;;;;;;9.87;6.53;;;-0.30;99.90;;;;;;4946710;28;20246;-43
2024/01/06 07:27:42;;;;;;;9.97;6.50;;;-0.30;99.90;;;;;;4933917;28;20232;-45
2024/01/06 07:30:10;;;;;;;9.90;6.60;;;-0.30;99.90;;;;;;4962442;28;20217;-45
2024/01/06 07:32:38;;;;;;;9.13;6.67;;;-0.30;99.90;;;;;;4953351;28;20582;-43
2024/01/06 07:35:05;;;;;;;9.57;6.53;;;-0.30;99.90;;;;;;4954634;28;20221;-43
2024/01/06 07:37:33;;;;;;;8.87;6.23;;;-0.30;99.90;;;;;;4963090;28;20284;-47
2024/01/06 07:39:59;;;;;;;11.07;6.17;;;-0.30;99.90;;;;;;4951619;28;20212;-45
2024/01/06 07:42:26;;;;;;;11.47;6.97;;;-0.30;99.90;;;;;;4934664;28;20207;-43
2024/01/06 07:44:53;;;;;;;8.77;6.40;;;-0.30;99.90;;;;;;4967377;28;20225;-44
2024/01/06 07:47:19;;;;;;;11.33;6.33;;;-0.30;99.90;;;;;;4946483;28;20225;-45
2024/01/06 07:49:48;;;;;;;11.67;7.27;;;-0.40;99.90;;;;;;4965213;28;20288;-47
2024/01/06 07:52:15;;;;;;;8.23;6.60;;;-0.30;99.90;;;;;;4960603;28;20320;-43
2024/01/06 07:54:41;;;;;;;8.43;6.13;;;-0.30;99.90;;;;;;4956817;28;20601;-43
2024/01/06 07:57:08;;;;;;;10.53;6.83;;;-0.30;99.90;;;;;;4933011;28;20606;-46
2024/01/06 07:59:35;;;;;;;10.07;6.57;;;-0.30;99.90;;;;;;4963245;28;20232;-45
2024/01/06 08:02:02;;;;;;;7.40;6.60;;;-0.30;99.90;;;;;;4956596;28;20302;-45
2024/01/06 08:04:29;;;;;;;9.57;6.30;;;-0.30;99.90;;;;;;4948045;28;20212;-44
2024/01/06 08:06:57;;;;;;;9.03;6.67;;;-0.30;99.90;;;;;;4962620;28;20689;-45
2024/01/06 08:09:24;;;;;;;8.47;6.20;;;-0.40;99.90;;;;;;4952069;28;20323;-44
2024/01/06 08:11:51;;;;;;;10.63;6.93;;;-0.40;99.90;;;;;;4965890;28;20203;-47
2024/01/06 08:14:18;;;;;;;12.60;7.10;;;-0.40;99.90;;;;;;4940286;28;20303;-45
2024/01/06 08:16:45;;;;;;;7.97;6.10;;;-0.40;99.90;;;;;;4955720;28;20202;-47
2024/01/06 08:19:13;;;;;;;7.50;6.13;;;-0.40;99.90;;;;;;4951076;28;20213;-45
2024/01/06 08:21:40;;;;;;;8.70;6.40;;;-0.30;99.90;;;;;;4967100;28;20197;-48
2024/01/06 08:24:08;;;;;;;9.67;6.73;;;-0.40;99.90;;;;;;4953766;28;20264;-45
2024/01/06 08:26:35;;;;;;;10.23;6.67;;;-0.30;99.90;;;;;;4967923;28;20299;-44
2024/01/06 08:29:02;;;;;;;7.80;6.03;;;-0.30;99.90;;;;;;4925688;28;20291;-46
2024/01/06 08:31:28;;;;;;;9.87;6.63;;;-0.40;99.90;;;;;;4957496;28;20333;-45
2024/01/06 08:33:55;;;;;;;8.47;6.07;;;-0.40;99.90;;;;;;4959938;28;20210;-46
2024/01/06 08:36:22;;;;;;;8.30;6.20;;;-0.30;99.90;;;;;;4953642;28;20290;-46
2024/01/06 08:38:49;;;;;;;10.33;6.23;;;-0.30;99.90;;;;;;4968746;28;20562;-45
2024/01/06 08:41:17;;;;;;;9.50;6.67;;;-0.30;99.90;;;;;;4952088;28;20886;-44
2024/01/06 08:43:44;;;;;;;10.43;6.80;;;-0.30;99.90;;;;;;4958994;28;20201;-46
2024/01/06 08:46:11;;;;;;;11.20;6.67;;;-0.30;99.90;;;;;;4922909;28;20801;-47
2024/01/06 08:48:38;;;;;;;8.90;5.80;;;-0.30;99.90;;;;;;4965471;28;20237;-44
2024/01/06 08:51:05;;;;;;;9.63;6.53;;;-0.30;99.90;;;;;;4952554;28;20209;-45
2024/01/06 08:53:32;;;;;;;10.77;6.87;;;-0.30;99.90;;;;;;4963556;28;20216;-44
2024/01/06 08:55:59;;;;;;;8.87;6.07;;;-0.20;99.90;;;;;;4952287;28;20850;-45
2024/01/06 08:58:27;;;;;;;8.03;6.27;;;-0.30;99.90;;;;;;4956309;28;20745;-47
2024/01/06 09:00:54;;;;;;;10.03;6.13;;;-0.30;99.90;;;;;;4927175;28;20329;-45
2024/01/06 09:03:24;;;;;;;8.87;6.70;;;-0.30;99.90;;;;;;4971087;28;20901;-46
2024/01/06 09:05:52;;;;;;;10.60;5.80;;;-0.20;99.90;;;;;;4961072;28;20241;-46
2024/01/06 09:08:19;;;;;;;9.83;6.70;;;-0.30;99.90;;;;;;4948681;28;20391;-48
2024/01/06 09:10:46;;;;;;;7.20;5.83;;;-0.20;99.90;;;;;;4956423;28;20225;-45
2024/01/06 09:13:13;;;;;;;8.80;6.60;;;-0.20;99.90;;;;;;4943552;28;20208;-45
2024/01/06 09:15:42;;;;;;;8.33;6.07;;;-0.30;99.90;;;;;;4931724;28;20232;-45
2024/01/06 09:18:09;;;;;;;10.47;6.43;;;-0.30;99.90;;;;;;4963877;28;20205;-44
2024/01/06 09:20:36;;;;;;;8.83;6.43;;;-0.30;99.90;;;;;;4961601;28;20197;-43
2024/01/06 09:23:03;;;;;;;7.90;6.00;;;-0.20;99.90;;;;;;4953074;28;20218;-45
2024/01/06 09:25:30;;;;;;;9.67;6.47;;;-0.30;99.90;;;;;;4951807;28;20228;-46
2024/01/06 09:27:58;;;;;;;10.20;6.53;;;-0.20;99.90;;;;;;4947633;28;20212;-44
2024/01/06 09:30:25;;;;;;;10.70;6.57;;;-0.20;99.90;;;;;;4967870;28;20268;-47
2024/01/06 09:32:54;;;;;;;7.70;6.00;;;-0.20;99.90;;;;;;4931786;28;20205;-44
2024/01/06 09:35:21;;;;;;;10.27;6.03;;;-0.20;99.90;;;;;;4956148;28;20217;-44
2024/01/06 09:37:48;;;;;;;9.67;6.33;;;-0.10;99.90;;;;;;4954224;28;20513;-46
2024/01/06 09:40:22;;;;;;;10.13;6.73;;;-0.20;99.90;;;;;;4945281;28;20201;-44
2024/01/06 09:42:49;;;;;;;9.27;6.47;;;-0.20;99.90;;;;;;4953851;28;20256;-43
2024/01/06 09:45:16;;;;;;;9.17;6.50;;;-0.20;99.90;;;;;;4958608;28;20219;-44
2024/01/06 09:47:49;;;;;;;7.83;6.67;;;-0.10;99.90;;;;;;4931114;28;20606;-43
2024/01/06 09:50:20;;;;;;;9.37;5.90;;;-0.10;99.90;;;;;;4957583;28;20224;-45
2024/01/06 09:52:53;;;;;;;8.93;6.23;;;-0.10;99.90;;;;;;4945676;28;20803;-46
2024/01/06 09:55:26;;;;;;;10.73;6.50;;;-0.10;99.90;;;;;;4953365;28;20368;-44
2024/01/06 09:57:53;;;;;;;9.00;7.07;;;-0.10;99.90;;;;;;4959171;28;20208;-45
2024/01/06 10:00:21;;;;;;;10.30;6.63;;;-0.10;99.90;;;;;;4956945;28;20255;-44
2024/01/06 10:02:48;;;;;;;9.03;5.83;;;-0.10;99.90;;;;;;4963355;28;20283;-43
2024/01/06 10:05:18;;;;;;;8.40;5.93;;;-0.10;99.90;;;;;;4944206;28;20223;-45
2024/01/06 10:07:46;;;;;;;6.00;5.30;;;-0.10;99.90;;;;;;4957771;28;20308;-44
2024/01/06 10:10:13;;;;;;;7.37;6.07;;;0.00;99.90;;;;;;4947034;28;20237;-45
2024/01/06 10:12:41;;;;;;;7.53;5.30;;;0.00;99.90;;;;;;4966849;28;20201;-44
2024/01/06 10:15:09;;;;;;;8.17;5.70;;;0.00;99.90;;;;;;4953075;28;20744;-44
2024/01/06 10:17:38;;;;;;;9.50;6.63;;;0.00;99.90;;;;;;4964792;28;20533;-44
2024/01/06 10:20:08;;;;;;;8.63;5.90;;;0.00;99.90;;;;;;4924688;28;20666;-45
2024/01/06 10:22:38;;;;;;;9.20;6.53;;;0.00;99.90;;;;;;4959270;28;20201;-43
2024/01/06 10:25:06;;;;;;;9.87;6.27;;;0.00;99.90;;;;;;4950941;28;20857;-45
2024/01/06 10:27:35;;;;;;;11.27;6.37;;;0.10;99.90;;;;;;4965422;28;20224;-44
2024/01/06 10:30:03;;;;;;;8.67;5.50;;;0.10;99.90;;;;;;4955560;28;20684;-47
2024/01/06 10:32:32;;;;;;;8.00;5.57;;;0.10;99.90;;;;;;4963778;28;20201;-43
2024/01/06 10:35:00;;;;;;;6.60;4.93;;;0.10;99.90;;;;;;4936242;28;20213;-44
2024/01/06 10:37:28;;;;;;;7.80;5.70;;;0.10;99.90;;;;;;4965176;28;20715;-45
2024/01/06 10:40:08;;;;;;;8.63;5.77;;;0.10;99.90;;;;;;4962843;28;20654;-44
2024/01/06 10:42:36;;;;;;;8.87;5.67;;;0.10;99.90;;;;;;4967776;28;20196;-45
2024/01/06 10:45:04;;;;;;;6.67;5.00;;;0.10;99.90;;;;;;4961575;28;20786;-48
2024/01/06 10:47:32;;;;;;;7.43;5.40;;;0.10;99.90;;;;;;4951000;28;20202;-46
2024/01/06 10:50:00;;;;;;;7.30;5.40;;;0.10;99.90;;;;;;4945406;28;20218;-46
2024/01/06 10:52:28;;;;;;;7.10;4.90;;;0.10;99.90;;;;;;4941524;28;20719;-44
2024/01/06 10:54:56;;;;;;;7.60;4.77;;;0.10;99.90;;;;;;4962368;28;20295;-45
2024/01/06 10:57:24;;;;;;;7.33;4.60;;;0.10;99.90;;;;;;4954935;28;20264;-44
2024/01/06 10:59:53;;;;;;;7.17;4.70;;;0.00;99.90;;;;;;4956086;28;20209;-44
2024/01/06 11:02:20;;;;;;;6.90;5.17;;;0.10;99.90;;;;;;4945711;28;20748;-45
2024/01/06 11:04:48;;;;;;;7.93;5.20;;;0.10;99.90;;;;;;4951262;28;20232;-43
2024/01/06 11:07:16;;;;;;;6.27;4.90;;;0.10;99.90;;;;;;4937693;28;20224;-45
2024/01/06 11:09:51;;;;;;;7.70;4.80;;;0.10;99.90;;;;;;4961363;28;20283;-45
2024/01/06 11:12:18;;;;;;;7.70;4.97;;;0.10;99.90;;;;;;4949434;28;20209;-45
2024/01/06 11:14:47;;;;;;;5.93;4.30;;;0.10;99.90;;;;;;4957919;28;20228;-45
2024/01/06 11:17:34;;;;;;;6.53;4.60;;;0.10;99.90;;;;;;4958385;28;20201;-44
2024/01/06 11:20:06;;;;;;;5.93;4.70;;;0.20;99.90;;;;;;4960298;28;20209;-47
2024/01/06 11:22:35;;;;;;;5.20;4.40;;;0.10;99.90;;;;;;4929673;28;20633;-45
2024/01/06 11:25:07;;;;;;;5.40;4.40;;;0.10;99.90;;;;;;4964476;28;20303;-45
2024/01/06 11:27:35;;;;;;;6.83;4.00;;;0.10;99.90;;;;;;4953514;28;20762;-43
2024/01/06 11:30:06;;;;;;;5.37;4.13;;;0.10;99.90;;;;;;4957474;28;20745;-43
2024/01/06 11:32:35;;;;;;;6.43;4.30;;;0.10;99.90;;;;;;4959236;28;20625;-45
2024/01/06 11:35:08;;;;;;;5.87;4.50;;;0.00;99.90;;;;;;4946712;28;20564;-44
2024/01/06 11:37:37;;;;;;;6.63;4.00;;;0.00;99.90;;;;;;4937510;28;20209;-48
2024/01/06 11:40:05;;;;;;;6.47;3.57;;;0.00;99.90;;;;;;4962861;28;20276;-44
2024/01/06 11:42:35;;;;;;;5.33;3.90;;;0.00;99.90;;;;;;4959957;28;20609;-45
2024/01/06 11:45:06;;;;;;;6.27;3.77;;;0.00;99.90;;;;;;4949596;28;20233;-43
2024/01/06 11:47:33;;;;;;;4.80;3.43;;;0.00;99.90;;;;;;4959884;28;20658;-43
2024/01/06 11:50:04;;;;;;;5.50;3.50;;;0.00;99.90;;;;;;4954581;28;20228;-44
2024/01/06 11:52:31;;;;;;;4.13;3.13;;;0.00;99.90;;;;;;4953006;28;20289;-44
2024/01/06 11:54:59;;;;;;;3.67;3.37;;;0.00;99.90;;;;;;4940902;28;20577;-45
2024/01/06 11:57:26;;;;;;;4.73;3.33;;;-0.10;99.90;;;;;;4955901;28;20288;-45
2024/01/06 11:59:53;;;;;;;3.93;3.43;;;-0.10;99.90;;;;;;4948199;28;20201;-45
2024/01/06 12:02:22;;;;;;;3.77;3.23;;;-0.10;99.90;;;;;;4964120;28;20198;-48
2024/01/06 12:04:50;;;;;;;4.33;3.33;;;-0.10;99.90;;;;;;4949723;28;20238;-45
2024/01/06 12:07:19;;;;;;;5.17;3.37;;;-0.10;99.90;;;;;;4945371;28;20280;-45
2024/01/06 12:09:46;;;;;;;3.40;3.00;;;-0.10;99.90;;;;;;4943570;28;21541;-43
2024/01/06 12:12:16;;;;;;;5.07;3.93;;;-0.10;99.90;;;;;;4953586;28;20205;-46
2024/01/06 12:14:43;;;;;;;4.53;2.83;;;-0.10;99.90;;;;;;4942236;28;20324;-44
2024/01/06 12:17:11;;;;;;;3.63;2.80;;;0.00;99.90;;;;;;4970584;28;20601;-44
2024/01/06 12:19:42;;;;;;;6.00;3.27;;;-0.10;99.90;;;;;;4970552;28;20197;-44
2024/01/06 12:22:12;;;;;;;5.37;2.70;;;-0.10;99.90;;;;;;4958043;28;20219;-45
2024/01/06 12:24:39;;;;;;;3.60;2.93;;;-0.10;99.90;;;;;;4960082;28;20254;-44
2024/01/06 12:27:09;;;;;;;3.97;3.13;;;-0.10;99.90;;;;;;4926683;28;20679;-45
2024/01/06 12:29:38;;;;;;;3.27;2.73;;;-0.20;99.90;;;;;;4952548;28;21837;-45
2024/01/06 12:32:06;;;;;;;4.03;3.13;;;-0.20;99.90;;;;;;4966099;28;20739;-46
2024/01/06 12:34:33;;;;;;;5.70;3.33;;;-0.20;99.90;;;;;;4959614;28;20268;-47
2024/01/06 12:37:02;;;;;;;5.10;3.00;;;-0.20;99.90;;;;;;4952753;28;20214;-45
2024/01/06 12:39:30;;;;;;;3.37;2.57;;;-0.20;99.90;;;;;;4947109;28;20209;-44
2024/01/06 12:41:58;;;;;;;3.30;2.70;;;-0.20;99.90;;;;;;4931617;28;20211;-44
2024/01/06 12:44:26;;;;;;;2.93;2.63;;;-0.20;99.90;;;;;;4963772;28;20749;-44
2024/01/06 12:46:52;;;;;;;3.13;2.83;;;-0.20;99.90;;;;;;4957094;28;20282;-45
2024/01/06 12:49:19;;;;;;;3.23;2.80;;;-0.10;99.90;;;;;;4968546;28;20541;-45